x

Portlock Bank- 76nm Ene Of Kodiak, Ak (46080) Wave Buoy

3:50pm - Mon 27th Feb 2017 All times are AKST. -9 hours from GMT.

  • Sig Wave height 14.1ft
  • Peak Period 8s
  • Average Period 6s
  • Wind
    40mph, 49mph gusts
  • Sea Temp 42°f
  • Air Temp 38°f
  • Sea Pressure 1011.3mb
  • Portlock Bank- 76nm Ene Of Kodiak, Ak
  • Portlock Bank- 76nm Ene Of Kodiak, Ak

More Historic Weather Station data

Upgrade to MSW Pro to gain access to the past 30 days of data for over 8000 Wavebouys and Weather Stations around the globe.

Join Pro

Comparision Forecast

View Surf forecast
   
Mon 02/27 3:50pm 14ft 8s 6s 40 49 mph 1011.3mb 42f 38f
2:50pm 11.5ft 8s 6s 38 47 mph 1012.3mb 42f 39f
1:50pm 8ft 6s 5s 31 38 mph 1013.5mb 42f 40f
12:50pm 7.5ft 7s 5s 29 34 mph 1014mb 42f 40f
11:50am 7.5ft 6s 5s 25 29 mph 1014.6mb 42f 40f
10:50am 7ft 6s 5s 22 27 mph 1015.1mb 42f 40f
9:50am 8ft 7s 5s 25 29 mph 1015.4mb 42f 41f
8:50am 8.5ft 6s 5s 20 22 mph 1016mb 42f 41f
7:50am 8ft 6s 5s 18 22 mph 1016.5mb 42f 41f
6:50am 8ft 6s 5s 20 25 mph 1017.1mb 42f 41f
5:50am 7.5ft 6s 5s 22 27 mph 1017.8mb 42f 41f
4:50am 8ft 6s 5s 18 22 mph 1018.4mb 42f 41f
3:50am 7.5ft 7s 5s 20 22 mph 1019mb 42f 41f
2:50am 8ft 7s 5s 22 25 mph 1019.8mb 42f 41f
1:50am 8ft 7s 6s 25 27 mph 1020.3mb 42f 41f
12:50am 7.5ft 8s 5s 25 29 mph 1020.7mb 42f 41f
Sun 02/26 11:50pm 8ft 7s 6s 22 27 mph 1021.3mb 42f 41f
10:50pm 7.5ft 7s 5s 16 22 mph 1022.4mb 42f 41f
9:50pm 8ft 6s 5s 18 22 mph 1022.9mb 42f 41f
8:50pm 8ft 6s 5s 20 25 mph 1023.3mb 42f 41f
7:50pm 7.5ft 6s 5s 20 25 mph 1023.6mb 42f 41f
6:50pm 8ft 7s 5s 25 31 mph 1023.6mb 42f 41f
5:50pm 8ft 7s 5s 22 29 mph 1024.4mb 42f 41f
4:50pm 8.5ft 7s 5s 22 29 mph 1024.7mb 42f 42f
3:50pm 8ft 7s 5s 27 34 mph 1024.6mb 42f 42f
2:50pm 8.5ft 6s 5s 27 34 mph 1025.2mb 42f 42f
1:50pm 7ft 7s 5s 20 25 mph 1026.3mb 42f 42f
12:50pm 6ft 6s 5s 20 25 mph 1026.4mb 42f 42f
11:50am 6.5ft 6s 5s 20 25 mph 1027.3mb 42f 41f
10:50am 7ft 6s 5s 27 31 mph 1027.4mb 42f 41f
9:50am 7ft 5s 5s 27 34 mph 1027.5mb 42f 41f
8:50am 6ft 6s 5s 25 31 mph 1027.9mb 42f 41f
7:50am 5.5ft 5s 5s 25 29 mph 1028.6mb 42f 41f
6:50am 6ft 5s 5s 20 25 mph 1029mb 42f 41f
5:50am 5.5ft 6s 5s 20 22 mph 1029.4mb 42f 41f
4:50am 5.5ft 6s 5s 20 25 mph 1030.2mb 42f 41f
3:50am 6ft 6s 5s 20 22 mph 1030.8mb 42f 40f
2:50am 6.5ft 7s 6s 13 16 mph 1031.7mb 42f 40f
1:50am 6.5ft 7s 6s 13 18 mph 1032.2mb 42f 40f
12:50am 6ft 7s 5s 18 20 mph 1032.9mb 42f 40f
Sat 02/25 11:50pm 6ft 7s 6s 16 20 mph 1033.4mb 42f 40f
10:50pm 6ft 7s 5s 16 20 mph 1033.9mb 42f 40f
8:50pm 6.5ft 6s 5s 18 20 mph 1034.7mb 42f 40f
7:50pm 7ft 7s 5s 18 20 mph 1035mb 42f 40f
6:50pm 7ft 6s 5s 20 22 mph 1035.3mb 42f 40f
5:50pm 8ft 7s 5s 20 25 mph 1036mb 42f 40f
4:50pm 8.5ft 7s 5s 20 25 mph 1036mb 42f 40f
3:50pm 9ft 7s 6s 20 25 mph 1036mb 42f 40f
2:50pm 8.5ft 7s 6s 25 31 mph 1036mb 42f 40f
1:50pm 10ft 8s 6s 25 27 mph 1036.7mb 42f 40f
12:50pm 9.5ft 8s 6s 27 31 mph 1036.2mb 42f 40f
11:50am 11ft 8s 6s 29 34 mph 1035.8mb 42f 40f
10:50am 12.5ft 8s 6s 31 38 mph 1035.5mb 42f 41f
9:50am 11.5ft 8s 6s 29 36 mph 1035.7mb 42f 41f
8:50am 12ft 8s 6s 31 38 mph 1035.2mb 42f 41f
5:50am 11.5ft 7s 6s 31 40 mph 1034.3mb 42f 41f
4:50am 11.5ft 8s 6s 36 45 mph 1033.6mb 42f 41f
3:50am 11.5ft 8s 6s 29 38 mph 1034.2mb 42f 41f
2:50am 10.5ft 7s 6s 31 36 mph 1033.5mb 42f 41f
1:50am 10ft 8s 6s 29 36 mph 1033.4mb 42f 41f
12:50am 9ft 6s 6s 27 34 mph 1032.9mb 42f 41f
Fri 02/24 11:50pm 9ft 7s 6s 22 27 mph 1033mb 42f 41f
10:50pm 7.5ft 7s 6s 22 27 mph 1032.3mb 42f 42f
9:50pm 7ft 6s 5s 20 22 mph 1032.5mb 42f 41f
8:50pm 7ft 8s 5s 22 29 mph 1032mb 42f 41f
7:50pm 6.5ft 7s 5s 22 27 mph 1031.7mb 42f 41f
6:50pm 7ft 8s 5s 18 22 mph 1031.4mb 42f 41f
5:50pm 7ft 8s 5s 25 34 mph 1030.7mb 42f 41f
4:50pm 7.5ft 6s 5s 22 25 mph 1030.4mb 42f 41f
3:50pm 8ft 7s 5s 25 29 mph 1030.2mb 42f 41f
2:50pm 9ft 7s 5s 27 34 mph 1030.1mb 42f 41f
1:50pm 8.5ft 6s 5s 27 31 mph 1030mb 42f 41f
12:50pm 7.5ft 6s 5s 22 29 mph 1030.4mb 42f 41f
11:50am 8ft 7s 5s 25 27 mph 1030.7mb 42f 41f
10:50am 7ft 7s 5s 22 27 mph 1030.8mb 42f 41f
9:50am 7ft 7s 5s 22 27 mph 1030.7mb 42f 40f
8:50am 7ft 6s 5s 22 27 mph 1030.8mb 42f 40f
7:50am 7.5ft 8s 5s 22 27 mph 1030.9mb 42f 41f
6:50am 8ft 7s 5s 22 27 mph 1030.9mb 42f 41f
5:50am 9ft 7s 5s 25 29 mph 1031.3mb 42f 41f
4:50am 9ft 7s 5s 27 31 mph 1031.5mb 42f 40f